Aurora, New Mexico
Current Conditions -  °F | °C
As of 3:53 AM on Saturday 01 Nov 2014 (Local Time) from KLVS Reporting Station
Broken Clouds Broken Clouds  
Wind Chill: 32°   Ceiling: 4000
Heat Index: 40°   Visibility: 10mi
Dew Point: 30°   Wind: 15mph
Humidity: 68%   Direction: 170°S
Pressure: 30.25"   Gusts: NA
Location:  36.0243°N, 105.005°W
Report Text: KLVS 010953Z AUTO 17013KT 10SM BKN040 04/M01 A3025 RMK AO2 SLP185 T00441011
Loading
Personal Weather Stations






























Interactive Weather Map
Tropical Storm Tracking
New forecast layout! Learn more

10-Day Weather Forecast

Advertisements
Track Severe Weather on mobile